Time;durP1;ratioP1;P1;durP2;ratioP2;P2;SDS_P1;SDS_P2;PMS_P1;PMS_P2;Temp;Humidity;BMP_temperature;BMP_pressure;BME280_temperature;BME280_humidity;BME280_pressure;Samples;Min_cycle;Max_cycle;Signal;HPM_P1;HPM_P2
2023/08/03 00:00:18;;;;;;;1.70;1.50;;;15.90;99.90;;;;;;5034448;28;20182;-71
2023/08/03 00:02:45;;;;;;;1.77;1.67;;;15.90;99.90;;;;;;5034700;28;20263;-71
2023/08/03 00:05:13;;;;;;;6.90;1.30;;;15.80;99.90;;;;;;5034862;28;20524;-71
2023/08/03 00:07:39;;;;;;;4.37;2.57;;;15.80;99.90;;;;;;5035560;28;20426;-70
2023/08/03 00:10:05;;;;;;;1.63;1.23;;;15.70;99.90;;;;;;5035549;28;20452;-71
2023/08/03 00:12:30;;;;;;;4.60;1.73;;;15.70;99.90;;;;;;5033901;28;20179;-71
2023/08/03 00:14:56;;;;;;;2.30;1.37;;;15.70;99.90;;;;;;5027950;28;20422;-71
2023/08/03 00:17:22;;;;;;;2.87;1.53;;;15.70;99.90;;;;;;5030432;28;20222;-71
2023/08/03 00:19:47;;;;;;;2.73;1.53;;;15.70;99.90;;;;;;5034970;28;20190;-70
2023/08/03 00:22:13;;;;;;;3.47;1.43;;;15.70;99.90;;;;;;5035432;28;20179;-71
2023/08/03 00:24:39;;;;;;;2.13;1.57;;;15.60;99.90;;;;;;5022608;28;20207;-70
2023/08/03 00:27:05;;;;;;;2.90;1.30;;;15.60;99.90;;;;;;5013723;28;20192;-71
2023/08/03 00:29:31;;;;;;;5.23;1.13;;;15.60;99.90;;;;;;5015809;28;20209;-71
2023/08/03 00:31:56;;;;;;;7.00;1.50;;;15.60;99.90;;;;;;5032436;28;20442;-72
2023/08/03 00:34:22;;;;;;;2.30;1.23;;;15.60;99.90;;;;;;5025559;28;20179;-71
2023/08/03 00:36:47;;;;;;;3.00;1.40;;;15.60;99.90;;;;;;5032659;28;20263;-71
2023/08/03 00:39:13;;;;;;;1.93;1.43;;;15.50;99.90;;;;;;5035173;28;20171;-71
2023/08/03 00:41:39;;;;;;;5.20;1.77;;;15.50;99.90;;;;;;5020977;28;20180;-70
2023/08/03 00:44:04;;;;;;;2.70;1.77;;;15.50;99.90;;;;;;5015787;28;20640;-72
2023/08/03 00:46:30;;;;;;;2.67;1.73;;;15.50;99.90;;;;;;5034098;28;20168;-70
2023/08/03 00:48:56;;;;;;;2.13;1.97;;;15.50;99.90;;;;;;5034913;28;20196;-72
2023/08/03 00:51:22;;;;;;;3.97;1.90;;;15.40;99.90;;;;;;5032420;28;20187;-71
2023/08/03 00:53:48;;;;;;;1.90;1.40;;;15.40;99.90;;;;;;5033980;28;20164;-70
2023/08/03 00:56:13;;;;;;;4.50;1.50;;;15.40;99.90;;;;;;5027631;28;20203;-70
2023/08/03 00:58:39;;;;;;;6.10;2.07;;;15.30;99.90;;;;;;5017323;28;20942;-70
2023/08/03 01:01:06;;;;;;;3.00;1.43;;;15.40;99.90;;;;;;5013675;28;20172;-70
2023/08/03 01:03:31;;;;;;;4.70;2.27;;;15.40;99.90;;;;;;5017608;28;20774;-71
2023/08/03 01:05:57;;;;;;;2.53;1.73;;;15.40;99.90;;;;;;5033556;28;20406;-70
2023/08/03 01:08:24;;;;;;;3.20;1.50;;;15.40;99.90;;;;;;5032409;28;20206;-70
2023/08/03 01:10:50;;;;;;;5.30;1.70;;;15.30;99.90;;;;;;5034536;28;20230;-70
2023/08/03 01:13:16;;;;;;;3.30;1.90;;;15.30;99.90;;;;;;5028904;28;20827;-73
2023/08/03 01:15:41;;;;;;;6.13;2.07;;;15.30;99.90;;;;;;5013725;28;20430;-70
2023/08/03 01:18:07;;;;;;;3.60;2.07;;;15.30;99.90;;;;;;5014420;28;20581;-71
2023/08/03 01:20:36;;;;;;;5.00;2.13;;;15.30;99.90;;;;;;5014627;28;20226;-71
2023/08/03 01:23:05;;;;;;;5.90;1.63;;;15.40;99.90;;;;;;5030280;28;20221;-75
2023/08/03 01:25:32;;;;;;;8.10;2.03;;;15.40;99.90;;;;;;5015774;28;20419;-71
2023/08/03 01:27:58;;;;;;;2.40;1.50;;;15.50;99.90;;;;;;5013318;28;20454;-71
2023/08/03 01:30:23;;;;;;;3.43;1.57;;;15.50;99.90;;;;;;5027314;28;20443;-70
2023/08/03 01:32:50;;;;;;;5.53;1.60;;;15.50;99.90;;;;;;5029195;28;20175;-70
2023/08/03 01:35:16;;;;;;;2.33;1.50;;;15.40;99.90;;;;;;5013404;28;20675;-72
2023/08/03 01:37:42;;;;;;;3.43;1.93;;;15.40;99.90;;;;;;5014353;28;20419;-70
2023/08/03 01:40:10;;;;;;;3.63;1.70;;;15.40;99.90;;;;;;5029776;28;20440;-71
2023/08/03 01:42:36;;;;;;;2.20;1.50;;;15.40;99.90;;;;;;5013920;28;20187;-71
2023/08/03 01:45:03;;;;;;;5.57;2.00;;;15.40;99.90;;;;;;5012465;28;20431;-76
2023/08/03 01:47:29;;;;;;;4.67;1.60;;;15.40;99.90;;;;;;5012778;28;20414;-70
2023/08/03 01:49:54;;;;;;;5.83;1.90;;;15.40;99.90;;;;;;5012215;28;20463;-71
2023/08/03 01:52:20;;;;;;;4.80;1.87;;;15.40;99.90;;;;;;5013711;28;20200;-71
2023/08/03 01:54:46;;;;;;;5.77;2.17;;;15.40;99.90;;;;;;5030609;28;20178;-72
2023/08/03 01:57:11;;;;;;;6.60;1.60;;;15.50;99.90;;;;;;5032369;28;20593;-71
2023/08/03 01:59:37;;;;;;;6.20;1.77;;;15.40;99.90;;;;;;5033371;28;20164;-70
2023/08/03 02:02:03;;;;;;;12.20;3.07;;;15.40;99.90;;;;;;5027443;28;20173;-71
2023/08/03 02:04:28;;;;;;;3.80;2.00;;;15.40;99.90;;;;;;5013071;28;20204;-69
2023/08/03 02:06:56;;;;;;;4.03;1.90;;;15.50;99.90;;;;;;5012717;28;20609;-73
2023/08/03 02:09:22;;;;;;;1.90;1.57;;;15.50;99.90;;;;;;5014221;28;20198;-71
2023/08/03 02:11:48;;;;;;;3.83;1.87;;;15.50;99.90;;;;;;5029353;28;20517;-69
2023/08/03 02:14:14;;;;;;;1.83;1.40;;;15.50;99.90;;;;;;5020088;28;20180;-71
2023/08/03 02:16:39;;;;;;;3.60;2.10;;;15.50;99.90;;;;;;5032280;28;20170;-70
2023/08/03 02:19:05;;;;;;;3.53;1.70;;;15.50;99.90;;;;;;5026901;28;20208;-70
2023/08/03 02:21:30;;;;;;;8.23;2.30;;;15.50;99.90;;;;;;5013072;28;20168;-71
2023/08/03 02:23:56;;;;;;;7.07;1.60;;;15.60;99.90;;;;;;5012038;28;20654;-73
2023/08/03 02:26:22;;;;;;;3.00;1.70;;;15.50;99.90;;;;;;5030545;28;20190;-70
2023/08/03 02:28:47;;;;;;;3.40;1.67;;;15.60;99.90;;;;;;5030697;28;20207;-71
2023/08/03 02:31:13;;;;;;;3.37;1.93;;;15.60;99.90;;;;;;5033309;28;20159;-72
2023/08/03 02:33:39;;;;;;;3.33;1.90;;;15.60;99.90;;;;;;5031632;28;20195;-71
2023/08/03 02:36:04;;;;;;;3.13;1.70;;;15.60;99.90;;;;;;5025692;28;20171;-71
2023/08/03 02:38:30;;;;;;;3.87;2.10;;;15.70;99.90;;;;;;5032149;28;20183;-70
2023/08/03 02:40:57;;;;;;;6.20;2.00;;;15.70;99.90;;;;;;5033018;28;20232;-71
2023/08/03 02:43:24;;;;;;;6.67;1.83;;;15.70;99.90;;;;;;5032925;28;20215;-69
2023/08/03 02:45:50;;;;;;;2.80;1.83;;;15.70;99.90;;;;;;5030426;28;20429;-69
2023/08/03 02:48:15;;;;;;;4.40;1.70;;;15.70;99.90;;;;;;5031618;28;20453;-71
2023/08/03 02:50:41;;;;;;;2.30;2.00;;;15.80;99.90;;;;;;5031627;28;20190;-69
2023/08/03 02:53:07;;;;;;;4.67;3.03;;;15.80;99.90;;;;;;5014070;28;20188;-70
2023/08/03 02:55:32;;;;;;;6.13;2.50;;;15.80;99.90;;;;;;5028318;28;20179;-69
2023/08/03 02:57:58;;;;;;;4.30;2.37;;;15.80;99.90;;;;;;5032201;28;20213;-71
2023/08/03 03:00:24;;;;;;;5.73;2.63;;;15.90;99.90;;;;;;5035223;28;20171;-69
2023/08/03 03:02:49;;;;;;;5.30;1.97;;;15.90;99.90;;;;;;5035391;28;20229;-74
2023/08/03 03:05:15;;;;;;;5.87;2.80;;;15.90;99.90;;;;;;5034709;28;20172;-72
2023/08/03 03:07:41;;;;;;;4.60;1.80;;;15.90;99.90;;;;;;5036695;28;20233;-70
2023/08/03 03:10:07;;;;;;;7.17;1.93;;;15.90;99.90;;;;;;5021230;28;20207;-73
2023/08/03 03:12:32;;;;;;;2.43;2.23;;;15.90;99.90;;;;;;5016990;28;20199;-70
2023/08/03 03:14:58;;;;;;;5.87;3.63;;;15.90;99.90;;;;;;5015845;28;20407;-71
2023/08/03 03:17:24;;;;;;;2.63;2.43;;;15.90;99.90;;;;;;5017411;28;20203;-71
2023/08/03 03:19:49;;;;;;;4.50;2.20;;;15.90;99.90;;;;;;5027361;28;20180;-71
2023/08/03 03:22:15;;;;;;;2.10;1.90;;;16.00;99.90;;;;;;5036602;28;20167;-69
2023/08/03 03:24:41;;;;;;;5.80;2.40;;;16.00;99.90;;;;;;5035852;28;20241;-69
2023/08/03 03:27:06;;;;;;;2.30;2.00;;;16.00;99.90;;;;;;5029000;28;20681;-70
2023/08/03 03:29:32;;;;;;;6.50;2.60;;;16.00;99.90;;;;;;5024129;28;20547;-71
2023/08/03 03:31:58;;;;;;;9.23;2.43;;;16.00;99.90;;;;;;5035556;28;20225;-70
2023/08/03 03:34:24;;;;;;;11.13;2.47;;;16.00;99.90;;;;;;5035754;28;20175;-69
2023/08/03 03:36:50;;;;;;;5.13;2.80;;;16.00;99.90;;;;;;5035050;28;20182;-71
2023/08/03 03:39:16;;;;;;;4.13;3.10;;;16.00;99.90;;;;;;5035744;28;20171;-70
2023/08/03 03:41:41;;;;;;;3.33;2.60;;;16.10;99.90;;;;;;5030833;28;20446;-71
2023/08/03 03:44:07;;;;;;;4.93;2.73;;;16.10;99.90;;;;;;5035627;28;20237;-70
2023/08/03 03:46:33;;;;;;;4.20;2.90;;;16.00;99.90;;;;;;5035061;28;20529;-73
2023/08/03 03:48:58;;;;;;;5.40;3.20;;;16.10;99.90;;;;;;5036024;28;20230;-72
2023/08/03 03:51:24;;;;;;;3.37;2.57;;;16.10;99.90;;;;;;5035158;28;20636;-70
2023/08/03 03:53:50;;;;;;;3.50;2.73;;;16.10;99.90;;;;;;5035683;28;20164;-72
2023/08/03 03:56:15;;;;;;;8.33;3.10;;;16.10;99.90;;;;;;5033162;28;20172;-69
2023/08/03 03:58:41;;;;;;;4.63;2.97;;;16.10;99.90;;;;;;5023787;28;20204;-70
2023/08/03 04:01:06;;;;;;;8.30;3.13;;;16.00;99.90;;;;;;5016165;28;20656;-71
2023/08/03 04:03:32;;;;;;;5.20;3.00;;;16.10;99.90;;;;;;5015189;28;20256;-70
2023/08/03 04:05:58;;;;;;;7.20;2.63;;;16.10;99.90;;;;;;5014929;28;20191;-70
2023/08/03 04:08:24;;;;;;;5.17;2.50;;;16.10;99.90;;;;;;5015813;28;20192;-72
2023/08/03 04:10:49;;;;;;;2.73;2.43;;;16.10;99.90;;;;;;5032668;28;20172;-72
2023/08/03 04:13:15;;;;;;;6.50;2.57;;;16.10;99.90;;;;;;5033445;28;20183;-74
2023/08/03 04:15:41;;;;;;;6.33;2.93;;;16.10;99.90;;;;;;5020959;28;20177;-70
2023/08/03 04:18:06;;;;;;;3.13;2.73;;;16.10;99.90;;;;;;5014720;28;20199;-70
2023/08/03 04:20:32;;;;;;;2.40;2.20;;;16.20;99.90;;;;;;5015192;28;20688;-72
2023/08/03 04:22:58;;;;;;;5.20;2.90;;;16.20;99.90;;;;;;5015480;28;20219;-69
2023/08/03 04:25:23;;;;;;;3.30;3.03;;;16.20;99.90;;;;;;5029760;28;20168;-70
2023/08/03 04:27:49;;;;;;;4.97;3.57;;;16.20;99.90;;;;;;5013785;28;20207;-71
2023/08/03 04:30:15;;;;;;;3.30;3.10;;;16.20;99.90;;;;;;5014250;28;20200;-70
2023/08/03 04:32:41;;;;;;;7.33;3.97;;;16.30;99.90;;;;;;5015346;28;20172;-71
2023/08/03 04:35:09;;;;;;;4.60;3.43;;;16.20;99.90;;;;;;5018236;28;20174;-71
2023/08/03 04:37:35;;;;;;;4.63;3.47;;;16.20;99.90;;;;;;5034295;28;21083;-70
2023/08/03 04:40:00;;;;;;;3.97;3.00;;;16.30;99.90;;;;;;5035167;28;20470;-72
2023/08/03 04:42:26;;;;;;;4.03;3.10;;;16.30;99.90;;;;;;5030933;28;20593;-70
2023/08/03 04:44:52;;;;;;;4.33;3.93;;;16.30;99.90;;;;;;5014206;28;20408;-70
2023/08/03 04:47:18;;;;;;;5.53;3.40;;;16.30;99.90;;;;;;5013097;28;20538;-70
2023/08/03 04:49:44;;;;;;;6.17;3.17;;;16.30;99.90;;;;;;5030223;28;20461;-69
2023/08/03 04:52:09;;;;;;;3.27;2.97;;;16.30;99.90;;;;;;5034840;28;20250;-70
2023/08/03 04:54:35;;;;;;;3.30;2.73;;;16.30;99.90;;;;;;5034730;28;20171;-73
2023/08/03 04:57:01;;;;;;;9.53;3.33;;;16.40;99.90;;;;;;5017937;28;20558;-70
2023/08/03 04:59:26;;;;;;;5.43;3.40;;;16.40;99.90;;;;;;5015035;28;20292;-70
2023/08/03 05:01:52;;;;;;;5.90;3.70;;;16.40;99.90;;;;;;5023958;28;20179;-72
2023/08/03 05:04:18;;;;;;;3.87;3.17;;;16.40;99.90;;;;;;5033449;28;20277;-69
2023/08/03 05:06:43;;;;;;;3.30;3.10;;;16.40;99.90;;;;;;5032421;28;20203;-69
2023/08/03 05:09:09;;;;;;;2.80;2.60;;;16.40;99.90;;;;;;5034791;28;20683;-69
2023/08/03 05:11:35;;;;;;;6.47;4.00;;;16.50;99.90;;;;;;5034116;28;20171;-71
2023/08/03 05:14:00;;;;;;;7.80;3.20;;;16.50;99.90;;;;;;5033857;28;20164;-71
2023/08/03 05:16:27;;;;;;;5.10;2.70;;;16.50;99.90;;;;;;5032883;28;20183;-70
2023/08/03 05:18:53;;;;;;;3.00;2.53;;;16.50;99.90;;;;;;5022389;28;20809;-69
2023/08/03 05:21:19;;;;;;;3.90;2.97;;;16.50;99.90;;;;;;5011828;28;20478;-72
2023/08/03 05:23:45;;;;;;;9.70;4.30;;;16.50;99.90;;;;;;5014195;28;20169;-70
2023/08/03 05:26:11;;;;;;;2.97;2.60;;;16.40;99.90;;;;;;5013606;28;20435;-71
2023/08/03 05:28:37;;;;;;;7.77;2.80;;;16.50;99.90;;;;;;5013848;28;20489;-72
2023/08/03 05:31:05;;;;;;;5.40;2.70;;;16.50;99.90;;;;;;5033428;28;20451;-69
2023/08/03 05:33:34;;;;;;;4.50;2.43;;;16.50;99.90;;;;;;5034130;28;20958;-70
2023/08/03 05:36:00;;;;;;;6.37;2.80;;;16.60;99.90;;;;;;5024110;28;20434;-71
2023/08/03 05:38:25;;;;;;;3.00;2.63;;;16.70;99.90;;;;;;5025732;28;20458;-74
2023/08/03 05:40:51;;;;;;;7.10;2.80;;;16.70;99.90;;;;;;5030926;28;20174;-71
2023/08/03 05:43:17;;;;;;;8.03;2.73;;;16.80;99.90;;;;;;5013565;28;20207;-69
2023/08/03 05:45:45;;;;;;;3.83;2.70;;;16.90;99.90;;;;;;5020196;28;20200;-72
2023/08/03 05:48:14;;;;;;;2.63;2.43;;;17.00;99.90;;;;;;5025651;28;20612;-68
2023/08/03 05:50:42;;;;;;;4.50;2.10;;;17.10;99.90;;;;;;5024418;28;20442;-68
2023/08/03 05:53:12;;;;;;;2.90;2.40;;;17.20;99.90;;;;;;5031166;28;20976;-68
2023/08/03 05:55:38;;;;;;;4.57;2.70;;;17.20;99.90;;;;;;5030511;28;20760;-68
2023/08/03 05:58:05;;;;;;;2.67;2.40;;;17.20;99.90;;;;;;5033370;28;20422;-71
2023/08/03 06:00:31;;;;;;;4.80;2.80;;;17.30;99.90;;;;;;5032841;28;20903;-71
2023/08/03 06:02:58;;;;;;;6.63;2.60;;;17.30;99.90;;;;;;5033490;28;20402;-71
2023/08/03 06:05:40;;;;;;;3.00;2.80;;;17.20;99.90;;;;;;5029398;28;20434;-69
2023/08/03 06:08:23;;;;;;;3.30;3.00;;;17.20;99.90;;;;;;5026620;28;20466;-71
2023/08/03 06:10:53;;;;;;;3.70;3.03;;;17.30;99.90;;;;;;5013689;28;20403;-71
2023/08/03 06:13:26;;;;;;;2.37;2.20;;;17.30;99.90;;;;;;5013614;28;20392;-70
2023/08/03 06:15:52;;;;;;;4.43;2.30;;;17.20;99.90;;;;;;5012393;28;20404;-74
2023/08/03 06:18:19;;;;;;;6.80;3.40;;;17.20;99.90;;;;;;5013217;28;20422;-71
2023/08/03 06:20:51;;;;;;;4.87;3.20;;;17.20;99.90;;;;;;5022679;28;20632;-70
2023/08/03 06:23:21;;;;;;;4.60;3.07;;;17.10;99.90;;;;;;5014962;28;20431;-71
2023/08/03 06:25:48;;;;;;;2.60;2.40;;;17.20;99.90;;;;;;5017827;28;20951;-71
2023/08/03 06:28:16;;;;;;;4.17;2.40;;;17.20;99.90;;;;;;5013188;28;20431;-72
2023/08/03 06:30:43;;;;;;;3.43;2.73;;;17.20;99.90;;;;;;5013312;28;20481;-72
2023/08/03 06:33:11;;;;;;;3.80;3.33;;;17.30;99.90;;;;;;5013193;28;20959;-73
2023/08/03 06:35:39;;;;;;;6.60;3.57;;;17.40;99.90;;;;;;5010754;28;20690;-71
2023/08/03 06:38:07;;;;;;;2.90;2.70;;;17.50;99.90;;;;;;5016502;28;20438;-73
2023/08/03 06:40:33;;;;;;;2.40;2.30;;;17.50;99.90;;;;;;5032525;28;20442;-72
2023/08/03 06:43:01;;;;;;;2.73;2.53;;;17.50;99.90;;;;;;5026417;28;20892;-71
2023/08/03 06:45:27;;;;;;;5.67;2.23;;;17.50;99.90;;;;;;5011096;28;20411;-71
2023/08/03 06:47:53;;;;;;;5.17;3.07;;;17.60;99.90;;;;;;5012982;28;20762;-72
2023/08/03 06:50:18;;;;;;;7.77;2.47;;;17.60;99.90;;;;;;5013012;28;20450;-70
2023/08/03 06:52:44;;;;;;;3.90;2.27;;;17.60;99.90;;;;;;5013146;28;20431;-70
2023/08/03 06:55:10;;;;;;;3.60;2.30;;;17.50;99.90;;;;;;5011975;28;20243;-71
2023/08/03 06:57:36;;;;;;;4.90;2.60;;;17.50;99.90;;;;;;5028112;28;20862;-70
2023/08/03 07:00:02;;;;;;;2.57;2.40;;;17.50;99.90;;;;;;5012588;28;20195;-70
2023/08/03 07:02:27;;;;;;;3.20;2.77;;;17.50;99.90;;;;;;5014182;28;20168;-72
2023/08/03 07:04:53;;;;;;;3.00;2.03;;;17.50;99.90;;;;;;5014111;28;20411;-69
2023/08/03 07:07:19;;;;;;;3.40;2.87;;;17.50;99.90;;;;;;5012163;28;20219;-69
2023/08/03 07:09:48;;;;;;;3.43;2.10;;;17.50;99.90;;;;;;5012724;28;20588;-71
2023/08/03 07:12:14;;;;;;;3.20;2.60;;;17.50;99.90;;;;;;5013014;28;20215;-70
2023/08/03 07:14:40;;;;;;;2.63;2.13;;;17.60;99.90;;;;;;5010852;28;20427;-71
2023/08/03 07:17:06;;;;;;;1.90;1.73;;;17.70;99.90;;;;;;5010913;28;20449;-69
2023/08/03 07:19:32;;;;;;;1.60;1.50;;;17.80;99.90;;;;;;5012321;28;20681;-70
2023/08/03 07:21:58;;;;;;;1.57;1.47;;;17.80;99.90;;;;;;5012979;28;20422;-70
2023/08/03 07:24:23;;;;;;;1.70;1.60;;;17.90;99.90;;;;;;5016594;28;20195;-70
2023/08/03 07:26:49;;;;;;;1.80;1.70;;;17.90;99.90;;;;;;5031476;28;20191;-70
2023/08/03 07:29:16;;;;;;;1.80;1.50;;;18.00;99.90;;;;;;5032585;28;20203;-72
2023/08/03 07:31:42;;;;;;;1.73;1.63;;;18.00;99.90;;;;;;5026803;28;20169;-71
2023/08/03 07:34:07;;;;;;;2.37;1.90;;;18.00;99.90;;;;;;5012691;28;21019;-70
2023/08/03 07:36:33;;;;;;;4.73;2.23;;;18.00;99.90;;;;;;5011472;28;20534;-71
2023/08/03 07:38:59;;;;;;;3.83;2.10;;;18.10;99.90;;;;;;5014089;28;20211;-70
2023/08/03 07:41:24;;;;;;;3.17;2.20;;;18.10;99.90;;;;;;5032552;28;20172;-70
2023/08/03 07:43:50;;;;;;;1.60;1.50;;;18.10;99.90;;;;;;5032507;28;20524;-71
2023/08/03 07:46:16;;;;;;;1.67;1.57;;;18.10;99.90;;;;;;5034467;28;20240;-71
2023/08/03 07:48:42;;;;;;;1.73;1.40;;;18.10;99.90;;;;;;5028663;28;20204;-72
2023/08/03 07:51:15;;;;;;;2.20;1.63;;;18.20;99.90;;;;;;5014648;28;20191;-71
2023/08/03 07:53:41;;;;;;;2.90;1.50;;;18.30;99.90;;;;;;5029532;28;20229;-71
2023/08/03 07:56:18;;;;;;;1.60;1.23;;;18.40;99.90;;;;;;5034882;28;20895;-71
2023/08/03 07:58:45;;;;;;;1.90;1.80;;;18.50;99.90;;;;;;5035729;28;20507;-72
2023/08/03 08:01:11;;;;;;;1.30;1.20;;;18.50;99.90;;;;;;5034344;28;20471;-70
2023/08/03 08:03:38;;;;;;;1.63;1.53;;;18.50;99.90;;;;;;5035631;28;20429;-71
2023/08/03 08:06:08;;;;;;;2.40;1.30;;;18.60;99.90;;;;;;5028657;28;20438;-73
2023/08/03 08:08:34;;;;;;;2.73;1.60;;;18.50;99.90;;;;;;5031053;28;20551;-71
2023/08/03 08:11:00;;;;;;;2.00;1.37;;;18.50;99.90;;;;;;5034431;28;20514;-70
2023/08/03 08:13:26;;;;;;;2.27;1.30;;;18.40;99.90;;;;;;5035026;28;20194;-70
2023/08/03 08:15:56;;;;;;;3.10;1.40;;;18.40;99.90;;;;;;5034766;28;20164;-70
2023/08/03 08:18:22;;;;;;;1.90;1.80;;;18.40;99.20;;;;;;5035548;28;20992;-70
2023/08/03 08:20:57;;;;;;;2.13;1.50;;;18.30;94.70;;;;;;5032884;28;20521;-69
2023/08/03 08:23:23;;;;;;;1.30;1.20;;;18.30;87.10;;;;;;5030407;28;20172;-71
2023/08/03 08:25:49;;;;;;;3.33;1.60;;;18.30;87.00;;;;;;5031876;28;20476;-69
2023/08/03 08:28:15;;;;;;;4.23;1.93;;;18.20;87.00;;;;;;5035287;28;20238;-70
2023/08/03 08:30:40;;;;;;;2.53;1.30;;;18.30;87.10;;;;;;5034709;28;20171;-73
2023/08/03 08:33:06;;;;;;;2.70;1.50;;;18.30;87.00;;;;;;5034300;28;20416;-71
2023/08/03 08:35:32;;;;;;;4.30;1.63;;;18.40;87.20;;;;;;5034206;28;20194;-71
2023/08/03 08:37:59;;;;;;;2.77;1.70;;;18.50;87.20;;;;;;5028698;28;20529;-70
2023/08/03 08:40:28;;;;;;;1.87;1.70;;;18.50;79.80;;;;;;5033083;28;20186;-70
2023/08/03 08:42:55;;;;;;;1.57;1.47;;;18.50;63.80;;;;;;5034483;28;20503;-73
2023/08/03 08:45:21;;;;;;;3.23;2.23;;;18.60;61.30;;;;;;5032634;28;20417;-70
2023/08/03 08:47:47;;;;;;;3.03;1.47;;;18.80;72.30;;;;;;5034293;28;20467;-70
2023/08/03 08:50:14;;;;;;;1.50;1.40;;;19.00;77.30;;;;;;5034680;28;20482;-71
2023/08/03 08:52:44;;;;;;;1.43;1.33;;;19.10;64.90;;;;;;5034020;28;20480;-71
2023/08/03 08:55:27;;;;;;;1.53;1.30;;;19.10;6.20;;;;;;5034138;28;20398;-70
2023/08/03 08:57:54;;;;;;;2.10;1.63;;;19.10;1.00;;;;;;5033621;28;20540;-73
2023/08/03 09:00:20;;;;;;;2.00;1.27;;;19.10;1.00;;;;;;5034016;28;20426;-70
2023/08/03 09:02:47;;;;;;;2.33;1.40;;;18.80;1.00;;;;;;5033847;28;20482;-75
2023/08/03 09:05:21;;;;;;;1.80;1.40;;;18.90;1.00;;;;;;5015395;28;20429;-73
2023/08/03 09:08:03;;;;;;;1.70;1.60;;;19.00;1.00;;;;;;5026857;28;20458;-70
2023/08/03 09:10:30;;;;;;;2.23;1.27;;;19.10;1.00;;;;;;5034623;28;20478;-71
2023/08/03 09:12:58;;;;;;;1.70;1.60;;;19.20;1.00;;;;;;5033531;28;20402;-75
2023/08/03 09:15:42;;;;;;;1.57;1.30;;;19.30;1.00;;;;;;5017850;28;20485;-72
2023/08/03 09:18:08;;;;;;;1.43;1.33;;;19.40;1.00;;;;;;5013775;28;20958;-71
2023/08/03 09:20:34;;;;;;;3.93;2.63;;;19.50;1.00;;;;;;5014105;28;20399;-71
2023/08/03 09:23:01;;;;;;;2.47;1.50;;;19.60;99.90;;;;;;5014359;28;20173;-71
2023/08/03 09:25:27;;;;;;;1.83;1.63;;;19.70;99.90;;;;;;5013304;28;20457;-72
2023/08/03 09:27:55;;;;;;;2.07;1.40;;;19.70;99.90;;;;;;5024237;28;20478;-72
2023/08/03 09:30:22;;;;;;;1.50;1.40;;;19.70;99.90;;;;;;5034286;28;20539;-71
2023/08/03 09:32:48;;;;;;;2.10;1.70;;;19.90;99.90;;;;;;5031596;28;20937;-71
2023/08/03 09:35:25;;;;;;;2.50;1.37;;;20.30;99.90;;;;;;5033265;28;20405;-73
2023/08/03 09:37:53;;;;;;;1.60;1.13;;;20.60;99.90;;;;;;5034031;28;20507;-72
2023/08/03 09:40:19;;;;;;;2.33;1.20;;;20.70;99.90;;;;;;5033906;28;20894;-71
2023/08/03 09:42:47;;;;;;;2.33;1.60;;;20.70;99.90;;;;;;5034406;28;20404;-71
2023/08/03 09:45:13;;;;;;;2.13;1.40;;;21.00;99.90;;;;;;5032492;28;20895;-71
2023/08/03 09:47:40;;;;;;;2.33;1.47;;;21.20;99.90;;;;;;5034094;28;20472;-70
2023/08/03 09:50:07;;;;;;;3.90;1.57;;;21.40;99.90;;;;;;5032521;28;20516;-71
2023/08/03 09:52:43;;;;;;;1.30;1.20;;;21.90;99.90;;;;;;5033598;28;20498;-71
2023/08/03 09:55:18;;;;;;;1.57;1.47;;;22.00;99.90;;;;;;5033040;28;20468;-71
2023/08/03 09:58:03;;;;;;;4.47;1.40;;;21.90;99.90;;;;;;5033124;28;20422;-71
2023/08/03 10:00:29;;;;;;;1.63;1.53;;;21.50;99.90;;;;;;5032791;28;20516;-71
2023/08/03 10:03:09;;;;;;;1.40;1.23;;;21.10;96.10;;;;;;5032735;28;21005;-72
2023/08/03 10:05:40;;;;;;;3.00;1.23;;;20.80;96.00;;;;;;5032954;28;20493;-71
2023/08/03 10:08:40;;;;;;;1.83;1.33;;;20.60;95.90;;;;;;5033228;28;20929;-71
2023/08/03 10:11:09;;;;;;;3.23;1.50;;;20.40;90.40;;;;;;5033364;28;20429;-71
2023/08/03 10:13:40;;;;;;;2.70;1.80;;;20.30;95.80;;;;;;5031906;28;20877;-71
2023/08/03 10:16:06;;;;;;;3.43;1.80;;;20.30;95.80;;;;;;5032363;28;20529;-71
2023/08/03 10:18:35;;;;;;;1.37;1.27;;;20.30;98.60;;;;;;5033601;28;20445;-71
2023/08/03 10:21:01;;;;;;;1.57;1.47;;;20.20;95.80;;;;;;5033776;28;20217;-71
2023/08/03 10:23:28;;;;;;;1.80;1.33;;;20.10;95.80;;;;;;5033488;28;20410;-70
2023/08/03 10:25:58;;;;;;;2.03;1.83;;;19.90;92.40;;;;;;5032649;28;20964;-71
2023/08/03 10:28:26;;;;;;;2.40;1.50;;;19.90;95.70;;;;;;5017507;28;20455;-72
2023/08/03 10:31:19;;;;;;;2.33;1.43;;;19.80;95.60;;;;;;5013678;28;20865;-71
2023/08/03 10:33:50;;;;;;;2.33;1.40;;;19.80;99.90;;;;;;5020579;28;20456;-71
2023/08/03 10:36:45;;;;;;;1.47;1.27;;;19.80;99.90;;;;;;5032403;28;20398;-70
2023/08/03 10:39:14;;;;;;;4.60;1.17;;;20.00;99.90;;;;;;5033271;28;20422;-71
2023/08/03 10:41:42;;;;;;;1.53;1.43;;;19.90;99.90;;;;;;5033394;28;20402;-70
2023/08/03 10:44:09;;;;;;;1.00;0.90;;;19.80;99.90;;;;;;5032318;28;20421;-72
2023/08/03 10:46:49;;;;;;;1.57;1.40;;;19.60;99.90;;;;;;5032133;28;20410;-72
2023/08/03 10:49:21;;;;;;;3.00;1.30;;;19.50;99.90;;;;;;5032029;28;20814;-71
2023/08/03 10:51:48;;;;;;;2.47;2.07;;;19.40;99.90;;;;;;5031769;28;20511;-71
2023/08/03 10:54:15;;;;;;;2.37;2.20;;;19.40;99.90;;;;;;5033169;28;20405;-73
2023/08/03 10:57:06;;;;;;;2.60;2.40;;;19.40;99.90;;;;;;5032102;28;20401;-70
2023/08/03 10:59:43;;;;;;;3.27;2.30;;;19.20;99.90;;;;;;5033292;28;20402;-71
2023/08/03 11:02:21;;;;;;;6.07;2.13;;;19.20;99.90;;;;;;5031655;28;20476;-70
2023/08/03 11:04:50;;;;;;;5.00;2.23;;;19.20;99.90;;;;;;5032686;28;20441;-71
2023/08/03 11:07:31;;;;;;;4.47;2.70;;;19.20;99.90;;;;;;5030637;28;20457;-70
2023/08/03 11:10:07;;;;;;;3.07;2.37;;;19.40;99.90;;;;;;5028489;28;20470;-71
2023/08/03 11:12:34;;;;;;;4.07;2.33;;;19.80;99.90;;;;;;5032545;28;20422;-71
2023/08/03 11:15:02;;;;;;;1.87;1.70;;;20.20;99.90;;;;;;5032564;28;20453;-81
2023/08/03 11:17:51;;;;;;;4.20;3.00;;;20.70;99.90;;;;;;5013217;28;20455;-70
2023/08/03 11:20:26;;;;;;;2.23;1.70;;;21.10;99.90;;;;;;5014010;28;20432;-75
2023/08/03 11:22:53;;;;;;;5.17;1.90;;;21.30;99.90;;;;;;4999349;28;20999;-72
2023/08/03 11:25:20;;;;;;;1.50;1.40;;;21.50;99.90;;;;;;4998629;28;20439;-71
2023/08/03 11:27:46;;;;;;;2.67;1.70;;;21.70;99.90;;;;;;5015370;28;20466;-72
2023/08/03 11:30:12;;;;;;;1.63;1.53;;;21.60;99.90;;;;;;5018762;28;20465;-70
2023/08/03 11:32:40;;;;;;;3.20;1.70;;;21.60;99.90;;;;;;5018791;28;20433;-70
2023/08/03 11:35:08;;;;;;;1.87;1.77;;;21.30;99.90;;;;;;5034060;28;20179;-70
2023/08/03 11:37:36;;;;;;;3.00;1.87;;;21.00;99.90;;;;;;5035002;28;20430;-71
2023/08/03 11:40:05;;;;;;;2.80;1.80;;;20.70;99.90;;;;;;5035017;28;20464;-70
2023/08/03 11:42:33;;;;;;;1.80;1.70;;;20.40;99.90;;;;;;5018128;28;20521;-72
2023/08/03 11:45:01;;;;;;;2.43;2.23;;;20.30;99.90;;;;;;5017829;28;20442;-70
2023/08/03 11:47:41;;;;;;;2.30;2.10;;;20.00;99.90;;;;;;5017838;28;20450;-71
2023/08/03 11:50:08;;;;;;;2.03;1.87;;;19.80;99.90;;;;;;5035114;28;20531;-70
2023/08/03 11:52:34;;;;;;;3.67;2.60;;;19.70;99.90;;;;;;5035254;28;20441;-70
2023/08/03 11:55:01;;;;;;;3.90;2.27;;;19.60;99.90;;;;;;5034221;28;20458;-79
2023/08/03 12:00:15;;;;;;;3.67;2.50;;;19.50;99.90;;;;;;5035928;28;20932;-70
2023/08/03 12:02:44;;;;;;;2.87;2.63;;;19.40;99.90;;;;;;5018384;28;20410;-72
2023/08/03 12:05:13;;;;;;;4.43;2.80;;;19.50;99.90;;;;;;5035057;28;20402;-71
2023/08/03 12:07:40;;;;;;;2.93;2.73;;;19.50;99.90;;;;;;5034526;28;20810;-70
2023/08/03 12:10:14;;;;;;;2.53;2.23;;;19.50;99.90;;;;;;5017822;28;20560;-72
2023/08/03 12:12:40;;;;;;;2.77;2.43;;;19.60;99.90;;;;;;5033912;28;20977;-71
2023/08/03 12:15:06;;;;;;;2.50;2.30;;;19.60;99.90;;;;;;5033851;28;20455;-69
2023/08/03 12:17:33;;;;;;;2.37;2.17;;;19.40;99.90;;;;;;5033148;28;20453;-70
2023/08/03 12:19:58;;;;;;;2.00;1.90;;;19.40;99.90;;;;;;5034592;28;20403;-72
2023/08/03 12:22:24;;;;;;;2.00;1.90;;;20.10;99.90;;;;;;5034403;28;20909;-70
2023/08/03 12:24:51;;;;;;;1.90;1.80;;;20.90;99.90;;;;;;5034637;28;20180;-70
2023/08/03 12:27:17;;;;;;;2.20;1.40;;;21.30;99.90;;;;;;5031884;28;20458;-70
2023/08/03 12:29:45;;;;;;;1.63;1.53;;;21.40;99.90;;;;;;5027564;28;20211;-69
2023/08/03 12:32:12;;;;;;;2.10;1.40;;;21.10;99.90;;;;;;5035239;28;20469;-72
2023/08/03 12:34:39;;;;;;;1.23;1.13;;;20.70;99.90;;;;;;5018489;28;20426;-71
2023/08/03 12:37:06;;;;;;;2.37;1.17;;;20.40;99.90;;;;;;5012935;28;21006;-71
2023/08/03 12:39:32;;;;;;;1.60;1.50;;;20.30;99.90;;;;;;5014447;28;20172;-71
2023/08/03 12:42:01;;;;;;;1.63;1.30;;;20.10;99.90;;;;;;5014105;28;20415;-70
2023/08/03 12:44:28;;;;;;;2.57;1.77;;;20.00;99.90;;;;;;5014465;28;20486;-72
2023/08/03 12:46:55;;;;;;;4.30;2.20;;;20.00;99.90;;;;;;5029873;28;20537;-72
2023/08/03 12:49:21;;;;;;;2.60;2.30;;;19.90;99.90;;;;;;5035016;28;20453;-70
2023/08/03 12:51:47;;;;;;;1.77;1.67;;;19.90;99.90;;;;;;5035167;28;20418;-70